createdAt,value
2022-10-09T00:00:00.000Z,14.36
2022-10-09T00:15:00.000Z,12.16
2022-10-09T00:30:00.000Z,10.81
2022-10-09T00:45:00.000Z,11.52
2022-10-09T01:00:00.000Z,12.73
2022-10-09T01:15:00.000Z,14.35
2022-10-09T01:30:00.000Z,14.44
2022-10-09T01:45:00.000Z,14.18
2022-10-09T02:00:00.000Z,14.89
2022-10-09T02:15:00.000Z,14.73
2022-10-09T02:30:00.000Z,14.2
2022-10-09T02:45:00.000Z,15.41
2022-10-09T03:00:00.000Z,19.14
2022-10-09T03:15:00.000Z,25.64
2022-10-09T03:30:00.000Z,25.96
2022-10-09T03:45:00.000Z,25.08
2022-10-09T04:00:00.000Z,23.34
2022-10-09T04:15:00.000Z,23.85
2022-10-09T04:30:00.000Z,20.8
2022-10-09T04:45:00.000Z,20.98
2022-10-09T05:00:00.000Z,18.85
2022-10-09T05:15:00.000Z,16.85
2022-10-09T05:30:00.000Z,16.51
2022-10-09T05:45:00.000Z,17.89
2022-10-09T06:00:00.000Z,17.42
2022-10-09T06:15:00.000Z,16
2022-10-09T06:30:00.000Z,14.56
2022-10-09T06:45:00.000Z,14.25
2022-10-09T07:00:00.000Z,12.99
2022-10-09T07:15:00.000Z,12.09
2022-10-09T07:30:00.000Z,12.14
2022-10-09T07:45:00.000Z,9.22
2022-10-09T08:00:00.000Z,8.68
2022-10-09T08:15:00.000Z,6.6
2022-10-09T08:30:00.000Z,6.13
2022-10-09T08:45:00.000Z,5.35
2022-10-09T09:00:00.000Z,5.67
2022-10-09T09:15:00.000Z,5.42
2022-10-09T09:30:00.000Z,5.2
2022-10-09T09:45:00.000Z,4.93
2022-10-09T10:00:00.000Z,4.42
2022-10-09T10:15:00.000Z,4.11
2022-10-09T10:30:00.000Z,4.26
2022-10-09T10:45:00.000Z,4.34
2022-10-09T11:00:00.000Z,5.41
2022-10-09T11:15:00.000Z,4.22
2022-10-09T11:30:00.000Z,3.92
2022-10-09T11:45:00.000Z,4.22
2022-10-09T12:00:00.000Z,5.36
2022-10-09T12:15:00.000Z,5.15
2022-10-09T12:30:00.000Z,6.39
2022-10-09T12:45:00.000Z,6.24
2022-10-09T13:00:00.000Z,5.41
2022-10-09T13:15:00.000Z,4.87
2022-10-09T13:30:00.000Z,4.47
2022-10-09T13:45:00.000Z,18.68
2022-10-09T14:00:00.000Z,9.32
2022-10-09T14:15:00.000Z,7.81
2022-10-09T14:30:00.000Z,15.8
2022-10-09T14:45:00.000Z,4.87
2022-10-09T15:00:00.000Z,4
2022-10-09T15:15:00.000Z,4.02
2022-10-09T15:30:00.000Z,4.31
2022-10-09T15:45:00.000Z,4.22
2022-10-09T16:00:00.000Z,3.79
2022-10-09T16:15:00.000Z,3.99
2022-10-09T16:30:00.000Z,8.75
2022-10-09T16:45:00.000Z,5.47
2022-10-09T17:00:00.000Z,5.13
2022-10-09T17:15:00.000Z,5.32
2022-10-09T17:30:00.000Z,4.73
2022-10-09T17:45:00.000Z,4.95
2022-10-09T18:00:00.000Z,6.85
2022-10-09T18:15:00.000Z,7.2
2022-10-09T18:30:00.000Z,6.09
2022-10-09T18:45:00.000Z,7.59
2022-10-09T19:00:00.000Z,6.76
2022-10-09T19:15:00.000Z,7.05
2022-10-09T19:30:00.000Z,7.72
2022-10-09T19:45:00.000Z,6.56
2022-10-09T20:00:00.000Z,6.75
2022-10-09T20:15:00.000Z,8.06
2022-10-09T20:30:00.000Z,9.39
2022-10-09T20:45:00.000Z,8.49
2022-10-09T21:00:00.000Z,7.54
2022-10-09T21:15:00.000Z,8.4
2022-10-09T21:30:00.000Z,9.92
2022-10-09T21:45:00.000Z,9.81
2022-10-09T22:00:00.000Z,9.02
2022-10-09T22:15:00.000Z,6.51
2022-10-09T22:30:00.000Z,5.67
2022-10-09T22:45:00.000Z,6.76
2022-10-09T23:00:00.000Z,7.76
2022-10-09T23:15:00.000Z,7.24
2022-10-09T23:30:00.000Z,8.45
2022-10-09T23:45:00.000Z,11.36
